Time;durP1;ratioP1;P1;durP2;ratioP2;P2;SDS_P1;SDS_P2;PMS_P1;PMS_P2;Temp;Humidity;BMP_temperature;BMP_pressure;BME280_temperature;BME280_humidity;BME280_pressure;Samples;Min_cycle;Max_cycle;Signal;HPM_P1;HPM_P2
2023/06/12 00:00:41;;;;;;;2.60;2.50;;;24.50;81.70;;;;;;5076178;28;20487;-84
2023/06/12 00:03:08;;;;;;;2.27;2.17;;;24.40;81.90;;;;;;5074833;28;20439;-84
2023/06/12 00:05:35;;;;;;;2.93;2.73;;;24.40;81.70;;;;;;5075688;28;20557;-84
2023/06/12 00:08:02;;;;;;;2.60;2.40;;;24.40;81.60;;;;;;5075696;28;20484;-84
2023/06/12 00:10:29;;;;;;;2.70;2.50;;;24.40;81.80;;;;;;5075927;28;20441;-84
2023/06/12 00:12:56;;;;;;;2.80;2.60;;;24.40;81.80;;;;;;5076186;28;20468;-83
2023/06/12 00:15:24;;;;;;;2.63;2.43;;;24.40;81.60;;;;;;5076024;28;20457;-83
2023/06/12 00:17:51;;;;;;;2.33;2.13;;;24.40;81.80;;;;;;5075698;28;20440;-84
2023/06/12 00:20:17;;;;;;;2.60;2.40;;;24.40;81.90;;;;;;5075587;28;20438;-83
2023/06/12 00:22:44;;;;;;;2.60;2.40;;;24.40;81.70;;;;;;5075493;28;20438;-83
2023/06/12 00:25:11;;;;;;;2.83;2.63;;;24.40;81.80;;;;;;5075571;28;20934;-83
2023/06/12 00:27:38;;;;;;;3.03;2.83;;;24.40;81.70;;;;;;5075776;28;20474;-84
2023/06/12 00:30:06;;;;;;;3.90;2.60;;;24.40;81.80;;;;;;5075826;28;20990;-83
2023/06/12 00:32:35;;;;;;;3.13;2.93;;;24.40;81.70;;;;;;5075388;28;20945;-85
2023/06/12 00:35:03;;;;;;;2.70;2.50;;;24.40;81.70;;;;;;5075763;28;20780;-83
2023/06/12 00:37:30;;;;;;;2.63;2.43;;;24.40;81.80;;;;;;5075730;28;20445;-84
2023/06/12 00:39:56;;;;;;;2.53;2.33;;;24.40;81.90;;;;;;5075207;28;20440;-83
2023/06/12 00:42:24;;;;;;;2.60;2.40;;;24.40;81.90;;;;;;5074918;28;20460;-85
2023/06/12 00:44:51;;;;;;;2.00;1.90;;;24.40;81.80;;;;;;5075122;28;20437;-85
2023/06/12 00:47:17;;;;;;;2.47;2.27;;;24.40;81.70;;;;;;5075198;28;20440;-84
2023/06/12 00:49:46;;;;;;;2.50;2.30;;;24.40;81.80;;;;;;5074673;28;20477;-84
2023/06/12 00:52:14;;;;;;;2.40;2.20;;;24.40;81.70;;;;;;5075082;28;20439;-84
2023/06/12 00:54:42;;;;;;;2.37;2.27;;;24.40;81.60;;;;;;5074604;28;20445;-83
2023/06/12 00:57:08;;;;;;;2.70;2.50;;;24.40;81.30;;;;;;5074912;28;20443;-84
2023/06/12 00:59:35;;;;;;;2.77;2.57;;;24.40;81.40;;;;;;5074833;28;20456;-84
2023/06/12 01:02:03;;;;;;;2.40;2.23;;;24.40;81.40;;;;;;5074953;28;20437;-84
2023/06/12 01:04:30;;;;;;;2.67;2.47;;;24.40;81.30;;;;;;5074727;28;20487;-85
2023/06/12 01:07:07;;;;;;;2.67;2.47;;;24.40;81.10;;;;;;5073638;28;20465;-83
2023/06/12 01:09:40;;;;;;;2.80;2.60;;;24.50;81.50;;;;;;5074709;28;21069;-85
2023/06/12 01:12:08;;;;;;;2.57;2.37;;;24.40;81.20;;;;;;5074680;28;20992;-83
2023/06/12 01:14:35;;;;;;;2.67;2.47;;;24.40;81.20;;;;;;5074282;28;20447;-83
2023/06/12 01:17:02;;;;;;;2.70;2.50;;;24.40;81.00;;;;;;5074358;28;20533;-85
2023/06/12 01:19:29;;;;;;;2.70;2.50;;;24.30;80.90;;;;;;5074266;28;20507;-83
2023/06/12 01:22:03;;;;;;;2.70;2.50;;;24.40;81.10;;;;;;5074463;28;20808;-83
2023/06/12 01:24:46;;;;;;;3.00;2.73;;;24.40;81.00;;;;;;5074428;28;20441;-83
2023/06/12 01:27:33;;;;;;;2.30;2.10;;;24.40;81.20;;;;;;5074552;28;20441;-83
2023/06/12 01:30:28;;;;;;;2.50;2.30;;;24.40;81.00;;;;;;5074102;28;21059;-84
2023/06/12 01:33:02;;;;;;;2.57;2.37;;;24.40;81.00;;;;;;5074445;28;20438;-83
2023/06/12 01:35:32;;;;;;;2.37;2.17;;;24.30;80.90;;;;;;5074224;28;20467;-84
2023/06/12 01:38:06;;;;;;;3.00;2.80;;;24.40;81.10;;;;;;5074126;28;20441;-86
2023/06/12 01:40:35;;;;;;;2.67;2.47;;;24.40;81.00;;;;;;5074081;28;20480;-85
2023/06/12 01:43:02;;;;;;;2.80;2.60;;;24.30;81.10;;;;;;5073577;28;20463;-84
2023/06/12 01:45:29;;;;;;;2.80;2.60;;;24.30;81.10;;;;;;5073630;28;20450;-86
2023/06/12 01:47:57;;;;;;;2.40;2.20;;;24.30;81.20;;;;;;5073692;28;20535;-85
2023/06/12 01:50:24;;;;;;;2.67;2.50;;;24.40;81.30;;;;;;5074205;28;20488;-86
2023/06/12 01:52:51;;;;;;;2.90;2.70;;;24.30;81.40;;;;;;5073742;28;20445;-84
2023/06/12 01:55:19;;;;;;;2.70;2.50;;;24.30;81.40;;;;;;5073857;28;20442;-83
2023/06/12 01:57:48;;;;;;;2.80;2.60;;;24.30;81.30;;;;;;5073773;28;20526;-85
2023/06/12 02:00:16;;;;;;;2.80;2.60;;;24.30;81.20;;;;;;5073572;28;20436;-84
2023/06/12 02:02:43;;;;;;;2.60;2.40;;;24.30;81.20;;;;;;5073797;28;20436;-84
2023/06/12 02:05:11;;;;;;;2.67;2.47;;;24.30;81.30;;;;;;5073511;28;20825;-82
2023/06/12 02:07:38;;;;;;;2.77;2.57;;;24.30;81.30;;;;;;5073566;28;20445;-84
2023/06/12 02:10:07;;;;;;;2.43;2.23;;;24.30;81.20;;;;;;5073211;28;20477;-85
2023/06/12 02:12:34;;;;;;;2.80;2.60;;;24.30;81.10;;;;;;5073378;28;20461;-85
2023/06/12 02:15:01;;;;;;;2.43;2.27;;;24.30;80.90;;;;;;5073331;28;20449;-85
2023/06/12 02:17:29;;;;;;;2.67;2.47;;;24.30;81.00;;;;;;5073264;28;20449;-85
2023/06/12 02:19:58;;;;;;;3.07;2.87;;;24.30;81.00;;;;;;5073517;28;20951;-84
2023/06/12 02:22:26;;;;;;;2.17;2.07;;;24.30;80.90;;;;;;5073370;28;20506;-85
2023/06/12 02:24:53;;;;;;;2.97;2.77;;;24.30;80.90;;;;;;5073146;28;20957;-86
2023/06/12 02:27:19;;;;;;;2.80;2.60;;;24.30;80.90;;;;;;5072805;28;20532;-85
2023/06/12 02:29:46;;;;;;;2.80;2.60;;;24.30;81.10;;;;;;5073176;28;20479;-85
2023/06/12 02:32:13;;;;;;;2.70;2.50;;;24.30;81.00;;;;;;5073225;28;20536;-85
2023/06/12 02:34:40;;;;;;;2.60;2.40;;;24.30;80.90;;;;;;5073234;28;20440;-84
2023/06/12 02:37:08;;;;;;;3.00;2.80;;;24.30;80.90;;;;;;5073357;28;20441;-85
2023/06/12 02:39:36;;;;;;;2.40;2.20;;;24.30;80.70;;;;;;5073358;28;20450;-85
2023/06/12 02:42:04;;;;;;;2.70;2.50;;;24.30;80.80;;;;;;5072990;28;20469;-85
2023/06/12 02:44:30;;;;;;;2.47;2.27;;;24.30;80.70;;;;;;5073394;28;20450;-84
2023/06/12 02:46:59;;;;;;;2.67;2.47;;;24.30;80.60;;;;;;5072991;28;20956;-85
2023/06/12 02:49:27;;;;;;;2.70;2.50;;;24.30;80.70;;;;;;5073435;28;20484;-84
2023/06/12 02:51:54;;;;;;;2.90;2.70;;;24.30;80.70;;;;;;5073220;28;20444;-84
2023/06/12 02:54:22;;;;;;;2.63;2.43;;;24.30;80.70;;;;;;5073133;28;20442;-85
2023/06/12 02:56:51;;;;;;;2.50;2.30;;;24.40;80.90;;;;;;5073133;28;20437;-85
2023/06/12 02:59:19;;;;;;;2.93;2.70;;;24.30;80.90;;;;;;5073009;28;20444;-85
2023/06/12 03:01:46;;;;;;;2.87;2.67;;;24.20;80.60;;;;;;5072963;28;20799;-85
2023/06/12 03:04:15;;;;;;;2.63;2.43;;;24.20;80.60;;;;;;5073240;28;20490;-85
2023/06/12 03:06:44;;;;;;;2.90;2.70;;;24.30;81.70;;;;;;5072819;28;20523;-84
2023/06/12 03:09:11;;;;;;;2.87;2.67;;;24.30;80.90;;;;;;5072969;28;20480;-84
2023/06/12 03:11:38;;;;;;;2.70;2.50;;;24.20;80.70;;;;;;5072850;28;20470;-85
2023/06/12 03:14:07;;;;;;;3.07;2.87;;;24.20;80.90;;;;;;5072938;28;20960;-84
2023/06/12 03:16:34;;;;;;;2.70;2.50;;;24.20;80.90;;;;;;5073135;28;20437;-84
2023/06/12 03:19:01;;;;;;;2.67;2.47;;;24.30;81.00;;;;;;5072833;28;20447;-85
2023/06/12 03:21:28;;;;;;;2.57;2.37;;;24.30;81.10;;;;;;5072936;28;20442;-86
2023/06/12 03:23:56;;;;;;;2.70;2.50;;;24.20;80.90;;;;;;5072819;28;20433;-85
2023/06/12 03:26:23;;;;;;;2.23;2.03;;;24.20;81.00;;;;;;5072400;28;20920;-85
2023/06/12 03:28:50;;;;;;;3.77;3.47;;;24.20;81.00;;;;;;5072882;28;20440;-85
2023/06/12 03:31:18;;;;;;;2.50;2.40;;;24.20;80.90;;;;;;5072641;28;20432;-84
2023/06/12 03:33:45;;;;;;;2.67;2.47;;;24.20;80.80;;;;;;5072923;28;20438;-84
2023/06/12 03:36:12;;;;;;;2.80;2.60;;;24.20;80.70;;;;;;5072641;28;20528;-84
2023/06/12 03:38:39;;;;;;;2.60;2.40;;;24.20;80.80;;;;;;5075200;28;20449;-84
2023/06/12 03:41:06;;;;;;;2.77;2.57;;;24.20;80.90;;;;;;5076354;28;20441;-85
2023/06/12 03:43:33;;;;;;;2.67;2.47;;;24.20;80.90;;;;;;5076424;28;20433;-85
2023/06/12 03:45:59;;;;;;;2.43;2.23;;;24.20;80.90;;;;;;5076332;28;20934;-84
2023/06/12 03:48:27;;;;;;;2.97;2.77;;;24.20;81.00;;;;;;5076246;28;20522;-85
2023/06/12 03:50:54;;;;;;;2.83;2.63;;;24.20;81.00;;;;;;5076073;28;20484;-83
2023/06/12 03:53:21;;;;;;;2.57;2.37;;;24.20;81.10;;;;;;5076271;28;20442;-85
2023/06/12 03:55:48;;;;;;;2.67;2.47;;;24.20;81.20;;;;;;5076080;28;20446;-84
2023/06/12 03:58:16;;;;;;;2.50;2.30;;;24.20;81.20;;;;;;5076056;28;20452;-84
2023/06/12 04:00:45;;;;;;;3.00;2.80;;;24.20;81.20;;;;;;5075906;28;20956;-83
2023/06/12 04:03:14;;;;;;;2.60;2.40;;;24.20;81.20;;;;;;5075879;28;20438;-84
2023/06/12 04:05:42;;;;;;;2.53;2.37;;;24.20;81.20;;;;;;5075556;28;20465;-85
2023/06/12 04:08:08;;;;;;;2.63;2.43;;;24.20;81.00;;;;;;5075637;28;20434;-83
2023/06/12 04:10:35;;;;;;;2.87;2.67;;;24.20;80.90;;;;;;5075829;28;20488;-84
2023/06/12 04:13:02;;;;;;;2.80;2.60;;;24.20;81.00;;;;;;5075616;28;20463;-83
2023/06/12 04:15:30;;;;;;;3.03;2.83;;;24.20;81.10;;;;;;5075595;28;20448;-84
2023/06/12 04:17:58;;;;;;;2.70;2.50;;;24.20;81.00;;;;;;5075304;28;20809;-85
2023/06/12 04:20:26;;;;;;;2.73;2.53;;;24.20;81.10;;;;;;5075469;28;20446;-83
2023/06/12 04:22:56;;;;;;;2.90;2.70;;;24.20;81.10;;;;;;5075444;28;20540;-84
2023/06/12 04:25:23;;;;;;;2.80;2.60;;;24.20;80.90;;;;;;5075392;28;20808;-84
2023/06/12 04:27:50;;;;;;;2.77;2.57;;;24.20;80.90;;;;;;5075171;28;20449;-83
2023/06/12 04:30:17;;;;;;;2.57;2.37;;;24.30;81.20;;;;;;5075212;28;20570;-85
2023/06/12 04:35:26;;;;;;;3.00;2.80;;;24.20;80.90;;;;;;5075121;28;20507;-83
2023/06/12 04:37:55;;;;;;;2.73;2.53;;;24.20;81.00;;;;;;5073974;28;20804;-83
2023/06/12 04:40:24;;;;;;;3.10;2.90;;;24.20;81.00;;;;;;5075157;28;20444;-84
2023/06/12 04:42:56;;;;;;;2.13;2.03;;;24.20;80.90;;;;;;5074949;28;20504;-84
2023/06/12 04:45:23;;;;;;;2.47;2.27;;;24.20;81.00;;;;;;5074831;28;20532;-84
2023/06/12 04:47:51;;;;;;;2.77;2.57;;;24.20;81.00;;;;;;5074955;28;20445;-84
2023/06/12 04:50:18;;;;;;;2.53;2.33;;;24.20;81.10;;;;;;5074032;28;20485;-83
2023/06/12 04:52:47;;;;;;;3.00;2.43;;;24.20;81.00;;;;;;5074836;28;20446;-84
2023/06/12 04:55:20;;;;;;;2.27;2.10;;;24.20;81.40;;;;;;5074707;28;20955;-85
2023/06/12 04:57:47;;;;;;;4.50;4.10;;;24.20;81.40;;;;;;5074511;28;20479;-82
2023/06/12 05:00:15;;;;;;;5.03;4.40;;;24.20;80.30;;;;;;5074658;28;20449;-83
2023/06/12 05:02:42;;;;;;;5.87;4.80;;;24.10;79.50;;;;;;5074638;28;20472;-83
2023/06/12 05:05:09;;;;;;;16.13;5.23;;;24.10;79.20;;;;;;5073515;28;20490;-85
2023/06/12 05:07:36;;;;;;;4.57;4.17;;;24.00;79.20;;;;;;5074754;28;20995;-85
2023/06/12 05:10:03;;;;;;;6.20;4.60;;;24.00;79.30;;;;;;5074739;28;20477;-83
2023/06/12 05:12:32;;;;;;;7.43;4.63;;;24.00;79.40;;;;;;5074325;28;20528;-85
2023/06/12 05:14:59;;;;;;;6.93;5.40;;;23.90;79.50;;;;;;5074553;28;20440;-84
2023/06/12 05:17:27;;;;;;;5.37;4.97;;;23.80;79.40;;;;;;5074766;28;20490;-84
2023/06/12 05:19:53;;;;;;;6.30;4.33;;;23.80;79.70;;;;;;5074712;28;20444;-83
2023/06/12 05:22:20;;;;;;;5.43;4.33;;;23.80;79.90;;;;;;5074382;28;20447;-84
2023/06/12 05:24:47;;;;;;;8.83;5.13;;;23.80;80.40;;;;;;5074847;28;20445;-84
2023/06/12 05:27:14;;;;;;;4.67;4.27;;;23.80;80.50;;;;;;5074273;28;20434;-84
2023/06/12 05:29:42;;;;;;;9.73;5.20;;;23.80;80.60;;;;;;5074112;28;20836;-83
2023/06/12 05:32:09;;;;;;;3.93;3.63;;;23.80;80.70;;;;;;5074441;28;20444;-81
2023/06/12 05:34:36;;;;;;;4.53;4.13;;;23.80;80.70;;;;;;5074487;28;20447;-83
2023/06/12 05:37:04;;;;;;;4.70;4.30;;;23.80;80.80;;;;;;5074304;28;20800;-83
2023/06/12 05:39:30;;;;;;;4.80;4.30;;;23.80;80.90;;;;;;5074072;28;20494;-84
2023/06/12 05:41:57;;;;;;;6.07;4.60;;;23.80;80.70;;;;;;5073975;28;20754;-85
2023/06/12 05:44:24;;;;;;;12.13;4.53;;;23.80;80.60;;;;;;5074018;28;20935;-85
2023/06/12 05:46:53;;;;;;;4.70;4.30;;;23.80;80.70;;;;;;5074375;28;20528;-85
2023/06/12 05:49:20;;;;;;;5.23;4.67;;;23.80;81.10;;;;;;5074189;28;20440;-84
2023/06/12 05:51:47;;;;;;;5.70;5.20;;;23.80;81.00;;;;;;5073834;28;20583;-85
2023/06/12 05:54:14;;;;;;;5.23;4.63;;;23.80;80.90;;;;;;5074105;28;20437;-86
2023/06/12 05:56:41;;;;;;;4.97;4.57;;;23.80;81.20;;;;;;5075004;28;20479;-85
2023/06/12 05:59:07;;;;;;;6.23;4.47;;;23.80;81.00;;;;;;5073344;28;20441;-84
2023/06/12 06:01:35;;;;;;;4.70;4.30;;;23.80;81.30;;;;;;5073873;28;20436;-85
2023/06/12 06:04:05;;;;;;;4.73;4.33;;;23.80;81.30;;;;;;5073668;28;20441;-85
2023/06/12 06:06:32;;;;;;;6.43;4.63;;;23.80;81.40;;;;;;5075920;28;20474;-85
2023/06/12 06:09:00;;;;;;;5.17;4.77;;;23.90;81.30;;;;;;5074207;28;20440;-85
2023/06/12 06:11:28;;;;;;;10.73;5.07;;;23.80;81.30;;;;;;5073854;28;20492;-85
2023/06/12 06:13:55;;;;;;;4.67;4.23;;;24.00;81.60;;;;;;5073740;28;20492;-85
2023/06/12 06:16:21;;;;;;;5.97;4.50;;;23.90;81.90;;;;;;5074143;28;20447;-85
2023/06/12 06:18:48;;;;;;;5.10;3.67;;;23.90;82.40;;;;;;5073919;28;20455;-85
2023/06/12 06:21:16;;;;;;;5.73;4.30;;;23.90;82.60;;;;;;5073284;28;20801;-85
2023/06/12 06:23:43;;;;;;;4.10;3.77;;;23.90;82.70;;;;;;5073445;28;20757;-85
2023/06/12 06:26:10;;;;;;;4.47;4.07;;;23.90;82.60;;;;;;5073505;28;20447;-84
2023/06/12 06:28:37;;;;;;;4.30;3.90;;;23.90;82.80;;;;;;5073682;28;20804;-84
2023/06/12 06:31:06;;;;;;;4.50;4.10;;;24.00;83.00;;;;;;5073714;28;20488;-84
2023/06/12 06:33:33;;;;;;;4.13;3.83;;;24.00;83.00;;;;;;5073742;28;20445;-84
2023/06/12 06:36:00;;;;;;;4.63;4.33;;;23.90;82.90;;;;;;5073354;28;20935;-84
2023/06/12 06:38:28;;;;;;;4.40;4.00;;;24.00;82.90;;;;;;5073489;28;20527;-85
2023/06/12 06:40:55;;;;;;;4.90;4.00;;;24.00;82.80;;;;;;5073502;28;20465;-86
2023/06/12 06:43:22;;;;;;;4.78;4.38;;;24.00;82.70;;;;;;5071594;28;20438;-86
2023/06/12 06:45:49;;;;;;;4.60;4.20;;;24.10;83.10;;;;;;5073494;28;20252;-90
2023/06/12 06:48:16;;;;;;;4.40;4.00;;;24.10;83.10;;;;;;5073919;28;20880;-83
2023/06/12 06:50:43;;;;;;;4.10;3.80;;;24.10;83.10;;;;;;5072934;28;20484;-87
2023/06/12 06:53:10;;;;;;;5.00;4.60;;;24.10;83.00;;;;;;5073199;28;20878;-86
2023/06/12 06:55:42;;;;;;;5.10;3.80;;;24.10;82.90;;;;;;5072126;28;20452;-86
2023/06/12 06:58:10;;;;;;;4.20;3.80;;;24.10;83.00;;;;;;5071617;28;20447;-85
2023/06/12 07:00:37;;;;;;;4.07;3.70;;;24.10;83.00;;;;;;5073179;28;20443;-84
2023/06/12 07:03:04;;;;;;;5.70;4.30;;;24.10;83.10;;;;;;5073851;28;20475;-83
2023/06/12 07:05:32;;;;;;;6.80;4.40;;;24.10;83.30;;;;;;5072181;28;20533;-84
2023/06/12 07:07:59;;;;;;;4.17;3.87;;;24.10;84.10;;;;;;5070795;28;20446;-85
2023/06/12 07:13:09;;;;;;;7.80;4.67;;;24.20;83.60;;;;;;4970290;28;20456;-85
2023/06/12 07:15:36;;;;;;;5.20;4.07;;;24.20;83.60;;;;;;5076738;28;20811;-83
2023/06/12 07:18:03;;;;;;;6.13;3.93;;;24.20;83.70;;;;;;5076852;28;20453;-84
2023/06/12 07:20:29;;;;;;;4.80;4.30;;;24.10;83.50;;;;;;5076883;28;20430;-84
2023/06/12 07:22:56;;;;;;;4.83;4.27;;;24.10;83.60;;;;;;5076804;28;20456;-86
2023/06/12 07:25:23;;;;;;;4.63;4.10;;;24.10;83.50;;;;;;5076534;28;20438;-83
2023/06/12 07:27:50;;;;;;;4.40;4.00;;;24.20;83.80;;;;;;5076909;28;20438;-86
2023/06/12 07:30:18;;;;;;;4.30;3.90;;;24.20;83.80;;;;;;5076223;28;20484;-85
2023/06/12 07:32:45;;;;;;;5.27;4.37;;;24.20;83.80;;;;;;5075869;28;20442;-81
2023/06/12 07:35:11;;;;;;;6.03;3.67;;;24.20;83.90;;;;;;5074946;28;20455;-81
2023/06/12 07:37:39;;;;;;;4.47;4.07;;;24.20;83.90;;;;;;5075238;28;20800;-82
2023/06/12 07:40:08;;;;;;;4.60;4.20;;;24.20;84.00;;;;;;5076049;28;20442;-82
2023/06/12 07:42:35;;;;;;;40.43;9.07;;;24.20;84.10;;;;;;5075328;28;20469;-84
2023/06/12 07:45:02;;;;;;;69.47;20.87;;;24.20;84.00;;;;;;5076065;28;20525;-83
2023/06/12 07:47:30;;;;;;;61.60;17.50;;;24.20;84.50;;;;;;5076010;28;20441;-84
2023/06/12 07:49:57;;;;;;;41.67;11.27;;;24.20;85.00;;;;;;5075943;28;20448;-84
2023/06/12 07:52:24;;;;;;;36.50;10.50;;;24.10;84.70;;;;;;5075280;28;20494;-83
2023/06/12 07:54:51;;;;;;;31.00;11.17;;;24.10;84.60;;;;;;5075029;28;20440;-84
2023/06/12 07:57:18;;;;;;;32.40;10.93;;;24.20;85.60;;;;;;5074820;28;20442;-82
2023/06/12 08:00:20;;;;;;;35.03;11.77;;;24.10;84.40;;;;;;5075452;28;20449;-82
2023/06/12 08:02:58;;;;;;;39.10;11.77;;;24.20;84.90;;;;;;5075561;28;20449;-83
2023/06/12 08:05:25;;;;;;;33.60;12.00;;;24.20;85.50;;;;;;5075566;28;20825;-82
2023/06/12 08:07:52;;;;;;;49.73;12.10;;;24.20;85.90;;;;;;5075810;28;20445;-83
2023/06/12 08:10:19;;;;;;;30.47;10.70;;;24.20;86.40;;;;;;5076109;28;20466;-82
2023/06/12 08:12:46;;;;;;;20.27;9.20;;;24.30;87.00;;;;;;5074923;28;20500;-81
2023/06/12 08:15:13;;;;;;;22.37;7.53;;;24.20;85.50;;;;;;5075556;28;20560;-82
2023/06/12 08:17:42;;;;;;;34.70;12.30;;;24.20;85.30;;;;;;5075482;28;20504;-82
2023/06/12 08:20:11;;;;;;;28.00;11.77;;;24.20;86.00;;;;;;5075990;28;20851;-85
2023/06/12 08:22:38;;;;;;;29.57;12.00;;;24.20;87.10;;;;;;5075539;28;20446;-82
2023/06/12 08:25:06;;;;;;;34.50;12.70;;;24.30;87.00;;;;;;5074261;28;20440;-82
2023/06/12 08:27:33;;;;;;;30.87;12.90;;;24.30;87.30;;;;;;5075703;28;20468;-80
2023/06/12 08:30:00;;;;;;;22.97;10.50;;;24.30;87.30;;;;;;5075439;28;20437;-81
2023/06/12 08:32:27;;;;;;;23.00;8.50;;;24.30;86.30;;;;;;5075191;28;20485;-81
2023/06/12 08:34:54;;;;;;;22.73;8.70;;;24.30;85.70;;;;;;5074889;28;20442;-86
2023/06/12 08:37:22;;;;;;;13.87;7.10;;;24.30;86.50;;;;;;5075402;28;20446;-82
2023/06/12 08:39:49;;;;;;;12.93;7.10;;;24.30;85.60;;;;;;5075346;28;20440;-81
2023/06/12 08:42:17;;;;;;;20.50;9.93;;;24.30;85.60;;;;;;5075422;28;20464;-84
2023/06/12 08:44:45;;;;;;;22.60;10.73;;;24.30;86.00;;;;;;5074658;28;20433;-84
2023/06/12 08:47:13;;;;;;;19.23;10.30;;;24.30;86.70;;;;;;5075227;28;20952;-84
2023/06/12 08:49:40;;;;;;;20.03;9.10;;;24.30;87.00;;;;;;5075686;28;20492;-84
2023/06/12 08:52:10;;;;;;;21.30;9.40;;;24.30;87.10;;;;;;5075215;28;20487;-93
2023/06/12 08:54:40;;;;;;;18.53;9.60;;;24.40;87.80;;;;;;5075646;28;20524;-84
2023/06/12 08:57:08;;;;;;;14.93;7.83;;;24.40;87.60;;;;;;5075354;28;20525;-83
2023/06/12 08:59:35;;;;;;;17.20;8.37;;;24.40;87.80;;;;;;5075233;28;20824;-83
2023/06/12 09:02:03;;;;;;;16.37;8.07;;;24.40;87.70;;;;;;5075228;28;20437;-92
2023/06/12 09:04:38;;;;;;;22.03;9.67;;;24.40;87.80;;;;;;5075059;28;20958;-84
2023/06/12 09:07:05;;;;;;;19.20;9.17;;;24.40;87.90;;;;;;5074813;28;21057;-93
2023/06/12 09:09:41;;;;;;;19.80;10.10;;;24.40;88.20;;;;;;5074867;28;20960;-83
2023/06/12 09:12:12;;;;;;;19.73;7.90;;;24.40;88.50;;;;;;5075091;28;20877;-91
2023/06/12 09:14:40;;;;;;;17.80;8.47;;;24.40;88.30;;;;;;5074954;28;20503;-88
2023/06/12 09:17:08;;;;;;;16.57;8.33;;;24.40;88.80;;;;;;5075143;28;20475;-84
2023/06/12 09:19:37;;;;;;;15.13;7.30;;;24.40;88.80;;;;;;5074716;28;20448;-92
2023/06/12 09:22:05;;;;;;;18.63;9.20;;;24.40;88.70;;;;;;5074627;28;20448;-85
2023/06/12 09:24:32;;;;;;;11.43;7.87;;;24.50;88.90;;;;;;5074501;28;20437;-93
2023/06/12 09:27:01;;;;;;;20.10;7.97;;;24.50;89.20;;;;;;5074587;28;20442;-85
2023/06/12 09:29:29;;;;;;;13.00;7.43;;;24.40;88.90;;;;;;5074657;28;20931;-84
2023/06/12 09:31:55;;;;;;;13.70;7.97;;;24.50;89.40;;;;;;5074624;28;20496;-93
2023/06/12 09:34:24;;;;;;;11.00;6.70;;;24.50;89.50;;;;;;5074405;28;20453;-85
2023/06/12 09:36:51;;;;;;;12.97;7.73;;;24.50;89.90;;;;;;5074367;28;20454;-84
2023/06/12 09:39:26;;;;;;;15.10;6.93;;;24.50;89.70;;;;;;5074493;28;20527;-84
2023/06/12 09:41:53;;;;;;;12.20;7.30;;;24.50;89.70;;;;;;5074449;28;20943;-84
2023/06/12 09:44:22;;;;;;;11.00;6.77;;;24.50;89.80;;;;;;5074331;28;20432;-88
2023/06/12 09:46:50;;;;;;;15.23;6.80;;;24.50;89.70;;;;;;5074330;28;20439;-84
2023/06/12 09:49:19;;;;;;;13.70;7.47;;;24.50;89.90;;;;;;5074414;28;20778;-86
2023/06/12 09:51:49;;;;;;;10.13;6.13;;;24.50;89.90;;;;;;5074280;28;20889;-83
2023/06/12 09:54:17;;;;;;;8.63;6.17;;;24.50;89.80;;;;;;5074409;28;20441;-84
2023/06/12 09:56:45;;;;;;;9.00;6.60;;;24.50;89.90;;;;;;5074020;28;20446;-90
2023/06/12 09:59:18;;;;;;;19.57;6.53;;;24.50;90.00;;;;;;5073975;28;20446;-83
2023/06/12 10:01:48;;;;;;;10.70;6.10;;;24.50;90.00;;;;;;5073542;28;20444;-84
2023/06/12 10:04:21;;;;;;;10.47;6.30;;;24.50;90.10;;;;;;5073720;28;20480;-88
2023/06/12 10:06:51;;;;;;;13.87;6.90;;;24.50;90.10;;;;;;5073833;28;20987;-83
2023/06/12 10:09:19;;;;;;;14.90;6.50;;;24.50;90.10;;;;;;5073691;28;20949;-84
2023/06/12 10:11:47;;;;;;;13.37;7.10;;;24.50;90.10;;;;;;5073598;28;20599;-92
2023/06/12 10:14:14;;;;;;;13.13;7.20;;;24.50;90.10;;;;;;5073364;28;20447;-84
2023/06/12 10:16:43;;;;;;;11.67;5.73;;;24.50;90.00;;;;;;5073509;28;20460;-84
2023/06/12 10:19:12;;;;;;;13.17;6.60;;;24.50;90.00;;;;;;5072996;28;20450;-90
2023/06/12 10:21:40;;;;;;;10.97;6.77;;;24.50;90.00;;;;;;5072630;28;20460;-88
2023/06/12 10:24:08;;;;;;;12.07;7.30;;;24.50;90.10;;;;;;5073093;28;20439;-85
2023/06/12 10:26:36;;;;;;;11.93;6.27;;;24.50;90.10;;;;;;5073168;28;20444;-83
2023/06/12 10:29:23;;;;;;;10.37;6.30;;;24.50;90.00;;;;;;5072694;28;20538;-87
2023/06/12 10:31:50;;;;;;;7.03;5.87;;;24.50;90.00;;;;;;5073226;28;20485;-84
2023/06/12 10:37:43;;;;;;;10.13;5.70;;;24.50;90.20;;;;;;5073965;28;20436;-84
2023/06/12 10:40:12;;;;;;;7.43;5.20;;;24.60;90.30;;;;;;5072941;28;20491;-88
2023/06/12 10:42:40;;;;;;;8.50;5.60;;;24.50;90.40;;;;;;5074587;28;20462;-93
2023/06/12 10:45:18;;;;;;;9.60;5.63;;;24.50;90.20;;;;;;5074017;28;20500;-84
2023/06/12 10:48:11;;;;;;;10.53;6.50;;;24.60;90.10;;;;;;5073091;28;20453;-92
2023/06/12 10:50:41;;;;;;;8.60;5.73;;;24.60;90.30;;;;;;5073364;28;20549;-85
2023/06/12 10:53:11;;;;;;;7.40;5.37;;;24.50;90.10;;;;;;5072903;28;20846;-84
2023/06/12 10:55:39;;;;;;;9.50;5.17;;;24.60;90.20;;;;;;5072879;28;20532;-84
2023/06/12 10:58:07;;;;;;;11.33;5.83;;;24.60;90.20;;;;;;5072700;28;20546;-92
2023/06/12 11:00:35;;;;;;;10.17;5.70;;;24.60;90.30;;;;;;5072466;28;20877;-91
2023/06/12 11:03:04;;;;;;;9.17;5.53;;;24.60;90.50;;;;;;5072342;28;20439;-85
2023/06/12 11:05:32;;;;;;;6.80;5.20;;;24.60;90.60;;;;;;5072230;28;20477;-84
2023/06/12 11:08:00;;;;;;;8.10;5.33;;;24.60;90.40;;;;;;5072395;28;20856;-84
2023/06/12 11:10:30;;;;;;;9.40;5.53;;;24.60;90.40;;;;;;5070693;28;20454;-84
2023/06/12 11:12:57;;;;;;;6.30;4.87;;;24.60;90.50;;;;;;5072441;28;20490;-83
2023/06/12 11:15:25;;;;;;;4.77;4.30;;;24.60;90.40;;;;;;5072675;28;20460;-82
2023/06/12 11:17:52;;;;;;;7.00;4.73;;;24.60;90.20;;;;;;5075367;28;20834;-83
2023/06/12 11:20:26;;;;;;;7.27;5.20;;;24.50;90.30;;;;;;5073093;28;20800;-82
2023/06/12 11:23:01;;;;;;;8.87;5.17;;;24.60;90.50;;;;;;5074602;28;20469;-86
2023/06/12 11:25:32;;;;;;;8.53;4.33;;;24.60;90.30;;;;;;5075001;28;20529;-86
2023/06/12 11:28:00;;;;;;;5.00;4.50;;;24.60;90.50;;;;;;5075393;28;20439;-85
2023/06/12 11:30:27;;;;;;;5.77;5.27;;;24.50;90.10;;;;;;5075471;28;20838;-85
2023/06/12 11:32:54;;;;;;;6.17;4.50;;;24.50;90.10;;;;;;5055743;28;20487;-86
2023/06/12 11:35:21;;;;;;;8.73;4.60;;;24.50;90.20;;;;;;5055159;28;20898;-86
2023/06/12 11:37:52;;;;;;;6.50;4.53;;;24.50;90.00;;;;;;5055384;28;20980;-85
2023/06/12 11:40:19;;;;;;;6.77;4.77;;;24.50;90.10;;;;;;5071230;28;20956;-86
2023/06/12 11:42:49;;;;;;;5.20;4.70;;;24.50;90.20;;;;;;5075223;28;20914;-86
2023/06/12 11:45:17;;;;;;;5.57;4.90;;;24.50;90.10;;;;;;5075402;28;20446;-85
2023/06/12 11:47:45;;;;;;;11.77;5.10;;;24.30;90.00;;;;;;5075291;28;20446;-84
2023/06/12 11:50:15;;;;;;;5.73;5.10;;;24.70;90.40;;;;;;5074991;28;20440;-86
2023/06/12 11:52:43;;;;;;;7.13;4.53;;;24.50;90.00;;;;;;5076382;28;20491;-81
2023/06/12 11:55:13;;;;;;;6.30;5.00;;;24.50;90.00;;;;;;5081885;28;20439;-84
2023/06/12 11:57:46;;;;;;;7.00;4.27;;;24.50;90.40;;;;;;5079456;28;20438;-82
2023/06/12 12:00:17;;;;;;;7.23;4.80;;;24.50;90.40;;;;;;5077777;28;20501;-82
2023/06/12 12:02:49;;;;;;;5.27;4.53;;;24.50;90.40;;;;;;5077840;28;20847;-81
2023/06/12 12:05:20;;;;;;;8.63;4.80;;;24.50;90.40;;;;;;5078049;28;20469;-79
2023/06/12 12:07:52;;;;;;;7.10;4.77;;;24.60;90.40;;;;;;5064264;28;20461;-81
2023/06/12 12:10:20;;;;;;;5.80;4.20;;;24.50;90.10;;;;;;5078231;28;20509;-83
2023/06/12 12:12:49;;;;;;;4.93;4.40;;;24.50;90.20;;;;;;5077355;28;20490;-83
2023/06/12 12:15:20;;;;;;;7.70;5.60;;;24.60;90.20;;;;;;5076585;28;20442;-83
2023/06/12 12:17:48;;;;;;;4.27;3.93;;;24.60;90.50;;;;;;5076935;28;20791;-85
2023/06/12 12:20:17;;;;;;;6.70;4.97;;;24.60;90.50;;;;;;5075345;28;20930;-84
2023/06/12 12:22:46;;;;;;;4.93;4.43;;;24.70;90.50;;;;;;5075206;28;20449;-83
2023/06/12 12:25:20;;;;;;;6.57;4.43;;;24.60;90.30;;;;;;5075402;28;20441;-83
2023/06/12 12:27:47;;;;;;;7.30;4.93;;;24.80;90.70;;;;;;5075264;28;20961;-82
2023/06/12 12:30:15;;;;;;;5.47;4.93;;;24.60;90.30;;;;;;5080252;28;20501;-83
2023/06/12 12:32:46;;;;;;;7.13;5.50;;;24.70;90.60;;;;;;5078339;28;20486;-81
2023/06/12 12:35:18;;;;;;;6.93;4.10;;;24.70;90.50;;;;;;5074486;28;20455;-88
2023/06/12 12:37:46;;;;;;;8.27;4.90;;;24.70;90.40;;;;;;5075029;28;21063;-89
2023/06/12 12:40:14;;;;;;;6.30;4.80;;;24.70;90.50;;;;;;5075458;28;20876;-90
2023/06/12 12:42:43;;;;;;;5.60;4.60;;;24.70;90.60;;;;;;5076100;28;20475;-87
2023/06/12 12:45:11;;;;;;;7.57;4.00;;;24.70;90.60;;;;;;5076723;28;20470;-87
2023/06/12 12:47:40;;;;;;;4.87;4.47;;;24.70;90.50;;;;;;5076760;28;20466;-87
2023/06/12 12:50:10;;;;;;;5.47;4.50;;;24.70;90.40;;;;;;5076419;28;20442;-89
2023/06/12 12:52:37;;;;;;;5.97;4.90;;;24.80;90.60;;;;;;5075941;28;20482;-88
2023/06/12 12:55:06;;;;;;;5.93;4.60;;;24.80;90.70;;;;;;5076116;28;20788;-88
2023/06/12 12:57:36;;;;;;;5.80;4.73;;;24.80;90.70;;;;;;5075970;28;20443;-88